Time,TemperatureF,DewpointF,PressureIn,WindDirection,WindDirectionDegrees,WindSpeedMPH,WindSpeedGustMPH,Humidity,HourlyPrecipIn,Conditions,Clouds,dailyrainin,SoftwareType,DateUTC
2013-09-04 00:07:00,66.0,55.0,30.03,WNW,283,0.0,3.0,67,0.00,,,0.00,weatherlink.com 1.10,2013-09-04 06:07:00,
2013-09-04 00:22:00,65.2,55.0,30.04,SSW,213,3.0,6.0,69,0.00,,,0.00,weatherlink.com 1.10,2013-09-04 06:22:00,
2013-09-04 00:37:00,63.9,55.0,30.04,SW,214,0.0,4.0,72,0.00,,,0.00,weatherlink.com 1.10,2013-09-04 06:37:00,
2013-09-04 00:52:00,62.7,55.0,30.05,NE,54,1.0,6.0,75,0.00,,,0.00,weatherlink.com 1.10,2013-09-04 06:52:00,
2013-09-04 01:07:00,61.6,54.0,30.05,NE,54,0.0,3.0,76,0.00,,,0.00,weatherlink.com 1.10,2013-09-04 07:07:00,
2013-09-04 01:22:00,60.5,54.0,30.06,NNW,331,1.0,4.0,79,0.00,,,0.00,weatherlink.com 1.10,2013-09-04 07:22:00,
2013-09-04 01:37:00,62.7,54.0,30.05,West,264,3.0,8.0,74,0.00,,,0.00,weatherlink.com 1.10,2013-09-04 07:37:00,
2013-09-04 01:52:00,62.7,54.0,30.05,West,264,2.0,3.0,74,0.00,,,0.00,weatherlink.com 1.10,2013-09-04 07:52:00,
2013-09-04 02:07:00,60.7,53.0,30.05,SSW,209,4.0,5.0,76,0.00,,,0.00,weatherlink.com 1.10,2013-09-04 08:07:00,
2013-09-04 02:22:00,61.2,53.0,30.06,SSW,206,6.0,7.0,74,0.00,,,0.00,weatherlink.com 1.10,2013-09-04 08:22:00,
2013-09-04 02:37:00,60.9,53.0,30.05,SSW,204,5.0,7.0,75,0.00,,,0.00,weatherlink.com 1.10,2013-09-04 08:37:00,
2013-09-04 02:52:00,60.7,52.0,30.05,SSW,211,6.0,8.0,74,0.00,,,0.00,weatherlink.com 1.10,2013-09-04 08:52:00,
2013-09-04 03:07:00,60.5,52.0,30.05,SW,214,5.0,8.0,73,0.00,,,0.00,weatherlink.com 1.10,2013-09-04 09:07:00,
2013-09-04 03:22:00,61.2,52.0,30.06,SSW,212,2.0,5.0,72,0.00,,,0.00,weatherlink.com 1.10,2013-09-04 09:22:00,
2013-09-04 03:37:00,62.3,51.0,30.06,SW,214,4.0,8.0,67,0.00,,,0.00,weatherlink.com 1.10,2013-09-04 09:37:00,
2013-09-04 03:52:00,62.4,51.0,30.06,SSW,205,4.0,7.0,66,0.00,,,0.00,weatherlink.com 1.10,2013-09-04 09:52:00,
2013-09-04 04:07:00,61.2,51.0,30.06,SSW,204,2.0,3.0,70,0.00,,,0.00,weatherlink.com 1.10,2013-09-04 10:07:00,
2013-09-04 04:22:00,61.5,50.0,30.06,SSW,199,3.0,7.0,67,0.00,,,0.00,weatherlink.com 1.10,2013-09-04 10:22:00,
2013-09-04 04:37:00,62.0,50.0,30.06,SSW,212,2.0,6.0,66,0.00,,,0.00,weatherlink.com 1.10,2013-09-04 10:37:00,
2013-09-04 04:52:00,62.1,50.0,30.06,WSW,238,2.0,6.0,65,0.00,,,0.00,weatherlink.com 1.10,2013-09-04 10:52:00,
2013-09-04 05:07:00,62.0,50.0,30.06,SW,220,0.0,5.0,66,0.00,,,0.00,weatherlink.com 1.10,2013-09-04 11:07:00,
2013-09-04 05:22:00,61.8,50.0,30.06,SW,222,2.0,5.0,65,0.00,,,0.00,weatherlink.com 1.10,2013-09-04 11:22:00,
2013-09-04 05:37:00,62.0,50.0,30.07,SW,224,1.0,4.0,64,0.00,,,0.00,weatherlink.com 1.10,2013-09-04 11:37:00,
2013-09-04 05:52:00,60.1,50.0,30.07,SE,126,1.0,3.0,69,0.00,,,0.00,weatherlink.com 1.10,2013-09-04 11:52:00,
2013-09-04 06:07:00,58.0,50.0,30.07,SE,127,0.0,4.0,75,0.00,,,0.00,weatherlink.com 1.10,2013-09-04 12:07:00,
2013-09-04 06:23:00,56.9,50.0,30.07,SE,127,0.0,2.0,79,0.00,,,0.00,weatherlink.com 1.10,2013-09-04 12:23:00,
2013-09-04 06:38:00,56.9,50.0,30.08,WSW,251,0.0,4.0,77,0.00,,,0.00,weatherlink.com 1.10,2013-09-04 12:38:00,
2013-09-04 06:53:00,56.5,50.0,30.09,WSW,251,2.0,4.0,79,0.00,,,0.00,weatherlink.com 1.10,2013-09-04 12:53:00,
2013-09-04 07:08:00,57.5,50.0,30.08,West,265,0.0,5.0,76,0.00,,,0.00,weatherlink.com 1.10,2013-09-04 13:08:00,
2013-09-04 07:23:00,58.7,51.0,30.09,West,265,2.0,3.0,75,0.00,,,0.00,weatherlink.com 1.10,2013-09-04 13:23:00,
2013-09-04 07:38:00,60.4,51.0,30.09,West,265,0.0,2.0,71,0.00,,,0.00,weatherlink.com 1.10,2013-09-04 13:38:00,
2013-09-04 07:53:00,62.1,52.0,30.10,West,265,1.0,1.0,69,0.00,,,0.00,weatherlink.com 1.10,2013-09-04 13:53:00,
2013-09-04 08:08:00,64.5,51.0,30.10,West,265,0.0,1.0,62,0.00,,,0.00,weatherlink.com 1.10,2013-09-04 14:08:00,
2013-09-04 08:23:00,66.4,53.0,30.10,West,265,1.0,2.0,63,0.00,,,0.00,weatherlink.com 1.10,2013-09-04 14:23:00,
2013-09-04 08:38:00,69.4,53.0,30.10,West,265,1.0,2.0,56,0.00,,,0.00,weatherlink.com 1.10,2013-09-04 14:38:00,
2013-09-04 08:53:00,70.8,53.0,30.09,ESE,118,1.0,3.0,53,0.00,,,0.00,weatherlink.com 1.10,2013-09-04 14:53:00,
2013-09-04 09:08:00,71.3,53.0,30.10,East,92,3.0,5.0,52,0.00,,,0.00,weatherlink.com 1.10,2013-09-04 15:08:00,
2013-09-04 09:23:00,70.9,52.0,30.09,East,90,9.0,10.0,52,0.00,,,0.00,weatherlink.com 1.10,2013-09-04 15:23:00,
2013-09-04 09:38:00,71.5,52.0,30.09,ESE,102,7.0,11.0,51,0.00,,,0.00,weatherlink.com 1.10,2013-09-04 15:38:00,
2013-09-04 09:53:00,70.9,53.0,30.09,ESE,105,9.0,10.0,53,0.00,,,0.00,weatherlink.com 1.10,2013-09-04 15:53:00,
2013-09-04 10:08:00,72.0,51.0,30.09,ESE,112,5.0,8.0,48,0.00,,,0.00,weatherlink.com 1.10,2013-09-04 16:08:00,
2013-09-04 10:23:00,73.3,52.0,30.09,ESE,102,0.0,7.0,48,0.00,,,0.00,weatherlink.com 1.10,2013-09-04 16:23:00,
2013-09-04 10:53:00,76.0,52.0,30.09,NNE,14,5.0,7.0,44,0.00,,,0.00,weatherlink.com 1.10,2013-09-04 16:53:00,
2013-09-04 11:08:00,75.1,52.0,30.09,NE,56,0.0,8.0,44,0.00,,,0.00,weatherlink.com 1.10,2013-09-04 17:08:00,
2013-09-04 11:23:00,74.7,52.0,30.08,NE,43,0.0,9.0,46,0.00,,,0.00,weatherlink.com 1.10,2013-09-04 17:23:00,
2013-09-04 11:38:00,75.8,53.0,30.08,NE,43,7.0,9.0,45,0.00,,,0.00,weatherlink.com 1.10,2013-09-04 17:38:00,
2013-09-04 11:53:00,76.7,52.0,30.07,ENE,76,5.0,7.0,43,0.00,,,0.00,weatherlink.com 1.10,2013-09-04 17:53:00,
2013-09-04 12:08:00,77.0,53.0,30.07,East,83,7.0,11.0,43,0.00,,,0.00,weatherlink.com 1.10,2013-09-04 18:08:00,
2013-09-04 12:23:00,77.9,51.0,30.07,East,95,5.0,9.0,39,0.00,,,0.00,weatherlink.com 1.10,2013-09-04 18:23:00,
2013-09-04 12:38:00,79.0,51.0,30.06,ENE,63,0.0,8.0,38,0.00,,,0.00,weatherlink.com 1.10,2013-09-04 18:38:00,
2013-09-04 12:53:00,79.6,50.0,30.06,ESE,114,1.0,9.0,36,0.00,,,0.00,weatherlink.com 1.10,2013-09-04 18:53:00,
2013-09-04 13:08:00,81.1,51.0,30.05,NE,56,3.0,10.0,35,0.00,,,0.00,weatherlink.com 1.10,2013-09-04 19:08:00,
2013-09-04 13:23:00,81.1,50.0,30.05,ESE,108,10.0,13.0,34,0.00,,,0.00,weatherlink.com 1.10,2013-09-04 19:23:00,
2013-09-04 13:38:00,81.8,49.0,30.04,ESE,122,7.0,14.0,32,0.00,,,0.00,weatherlink.com 1.10,2013-09-04 19:38:00,
2013-09-04 13:53:00,82.4,48.0,30.04,ESE,109,8.0,14.0,30,0.00,,,0.00,weatherlink.com 1.10,2013-09-04 19:53:00,
2013-09-04 14:08:00,82.2,48.0,30.04,NE,56,5.0,10.0,30,0.00,,,0.00,weatherlink.com 1.10,2013-09-04 20:08:00,
2013-09-04 14:23:00,83.0,47.0,30.03,ESE,104,7.0,14.0,28,0.00,,,0.00,weatherlink.com 1.10,2013-09-04 20:23:00,
2013-09-04 14:38:00,84.3,48.0,30.02,ESE,102,4.0,11.0,28,0.00,,,0.00,weatherlink.com 1.10,2013-09-04 20:38:00,
2013-09-04 14:53:00,84.3,48.0,30.02,East,101,5.0,10.0,28,0.00,,,0.00,weatherlink.com 1.10,2013-09-04 20:53:00,
2013-09-04 15:10:00,84.9,47.0,30.01,ESE,110,3.0,11.0,27,0.00,,,0.00,weatherlink.com 1.10,2013-09-04 21:10:00,
2013-09-04 15:23:00,85.5,47.0,30.01,ESE,110,7.0,13.0,26,0.00,,,0.00,weatherlink.com 1.10,2013-09-04 21:23:00,
2013-09-04 15:38:00,85.5,46.0,30.01,NNW,339,0.0,10.0,25,0.00,,,0.00,weatherlink.com 1.10,2013-09-04 21:38:00,
2013-09-04 15:53:00,85.5,46.0,30.00,SE,143,7.0,11.0,25,0.00,,,0.00,weatherlink.com 1.10,2013-09-04 21:53:00,
2013-09-04 16:09:00,86.3,47.0,30.00,East,83,5.0,6.0,25,0.00,,,0.00,weatherlink.com 1.10,2013-09-04 22:09:00,
2013-09-04 16:24:00,87.2,46.0,29.99,East,83,3.0,8.0,24,0.00,,,0.00,weatherlink.com 1.10,2013-09-04 22:24:00,
2013-09-04 16:39:00,87.4,45.0,29.99,NE,43,1.0,8.0,23,0.00,,,0.00,weatherlink.com 1.10,2013-09-04 22:39:00,
2013-09-04 16:54:00,86.7,47.0,29.99,East,89,9.0,9.0,25,0.00,,,0.00,weatherlink.com 1.10,2013-09-04 22:54:00,
2013-09-04 17:09:00,87.8,44.0,29.99,NE,37,4.0,6.0,22,0.00,,,0.00,weatherlink.com 1.10,2013-09-04 23:09:00,
2013-09-04 17:24:00,87.6,44.0,29.98,SE,125,2.0,8.0,22,0.00,,,0.00,weatherlink.com 1.10,2013-09-04 23:24:00,
2013-09-04 17:39:00,88.0,45.0,29.98,WSW,251,1.0,4.0,22,0.00,,,0.00,weatherlink.com 1.10,2013-09-04 23:39:00,
2013-09-04 17:54:00,86.3,45.0,29.98,East,96,6.0,8.0,24,0.00,,,0.00,weatherlink.com 1.10,2013-09-04 23:54:00,
2013-09-04 18:09:00,86.1,45.0,29.98,ESE,114,1.0,8.0,24,0.00,,,0.00,weatherlink.com 1.10,2013-09-05 00:09:00,
2013-09-04 18:24:00,87.8,43.0,29.98,SW,220,0.0,5.0,21,0.00,,,0.00,weatherlink.com 1.10,2013-09-05 00:24:00,
2013-09-04 18:39:00,87.6,38.0,29.98,West,266,0.0,5.0,17,0.00,,,0.00,weatherlink.com 1.10,2013-09-05 00:39:00,
2013-09-04 18:54:00,88.4,40.0,29.98,West,266,0.0,1.0,18,0.00,,,0.00,weatherlink.com 1.10,2013-09-05 00:54:00,
2013-09-04 19:09:00,86.5,48.0,29.98,West,266,0.0,1.0,26,0.00,,,0.00,weatherlink.com 1.10,2013-09-05 01:09:00,
2013-09-04 19:24:00,82.2,44.0,29.98,West,266,0.0,1.0,26,0.00,,,0.00,weatherlink.com 1.10,2013-09-05 01:24:00,
2013-09-04 19:39:00,76.8,46.0,29.98,West,266,0.0,2.0,33,0.00,,,0.00,weatherlink.com 1.10,2013-09-05 01:39:00,
2013-09-04 19:54:00,74.7,43.0,29.99,SW,222,0.0,5.0,32,0.00,,,0.00,weatherlink.com 1.10,2013-09-05 01:54:00,
2013-09-04 20:09:00,71.8,44.0,29.99,WSW,256,3.0,5.0,37,0.00,,,0.00,weatherlink.com 1.10,2013-09-05 02:09:00,
2013-09-04 20:24:00,73.0,42.0,30.00,SSW,209,2.0,5.0,33,0.00,,,0.00,weatherlink.com 1.10,2013-09-05 02:24:00,
2013-09-04 20:39:00,71.3,41.0,30.00,SSW,209,3.0,5.0,33,0.00,,,0.00,weatherlink.com 1.10,2013-09-05 02:39:00,
2013-09-04 20:54:00,69.1,44.0,30.01,SSW,209,3.0,4.0,40,0.00,,,0.00,weatherlink.com 1.10,2013-09-05 02:54:00,
2013-09-04 21:09:00,70.1,44.0,30.02,SSW,212,2.0,4.0,39,0.00,,,0.00,weatherlink.com 1.10,2013-09-05 03:09:00,
2013-09-04 21:24:00,70.6,42.0,30.03,SW,221,2.0,5.0,35,0.00,,,0.00,weatherlink.com 1.10,2013-09-05 03:24:00,
2013-09-04 21:39:00,70.3,44.0,30.04,SW,224,2.0,5.0,39,0.00,,,0.00,weatherlink.com 1.10,2013-09-05 03:39:00,
2013-09-04 21:54:00,69.4,44.0,30.04,SW,224,2.0,5.0,40,0.00,,,0.00,weatherlink.com 1.10,2013-09-05 03:54:00,
2013-09-04 22:09:00,67.4,47.0,30.04,SW,224,0.0,5.0,48,0.00,,,0.00,weatherlink.com 1.10,2013-09-05 04:09:00,
2013-09-04 22:24:00,68.1,46.0,30.04,SW,224,1.0,3.0,45,0.00,,,0.00,weatherlink.com 1.10,2013-09-05 04:24:00,
2013-09-04 22:39:00,70.4,44.0,30.05,SW,224,4.0,5.0,39,0.00,,,0.00,weatherlink.com 1.10,2013-09-05 04:39:00,
2013-09-04 22:54:00,71.5,45.0,30.05,SW,227,0.0,3.0,39,0.00,,,0.00,weatherlink.com 1.10,2013-09-05 04:54:00,
2013-09-04 23:09:00,69.8,46.0,30.05,SSW,209,4.0,8.0,42,0.00,,,0.00,weatherlink.com 1.10,2013-09-05 05:09:00,
2013-09-04 23:24:00,68.1,46.0,30.05,SW,222,4.0,8.0,45,0.00,,,0.00,weatherlink.com 1.10,2013-09-05 05:24:00,
2013-09-04 23:39:00,68.4,44.0,30.04,SSW,208,5.0,6.0,41,0.00,,,0.00,weatherlink.com 1.10,2013-09-05 05:39:00,
2013-09-04 23:54:00,66.8,45.0,30.05,SW,224,6.0,7.0,46,0.00,,,0.00,weatherlink.com 1.10,2013-09-05 05:54:00,